Zanesville, Ohio
Current Conditions -  °F | °C
As of 3:53 PM on Tuesday 27 Jan 2015 (Local Time) from KZZV Reporting Station
Overcast Overcast  
Wind Chill: 10°   Ceiling: 2400
Heat Index: 21°   Visibility: 10mi
Dew Point: 12°   Wind: 10mph
Humidity: 68%   Direction: 320°NW
Pressure: 30.06"   Gusts: NA
Location:  39.94°N, 82°W
Report Text: KZZV 272053Z AUTO 32009KT 10SM OVC024 M06/M11 A3006 RMK AO2 SLP193 60000 T10611111 53012
Loading
Personal Weather Stations






























Interactive Weather Map New forecast layout! Learn more

10-Day Weather Forecast

Advertisements
Track Severe Weather on mobile